Virginia, MN

9:11 PM CST on February 05, 2016 (GMT -0600)
UTAC Thunderbird Mine | | Change Station
CLOSE
Current Station
Personal Weather Station
Location: Eveleth, MN
Elevation: 1621 ft
Nearby Weather Stations

Elev 1621 ft 47.48 °N, 92.54 °W | Updated 11 minutes ago

Overcast
Overcast
23.3 °F
Feels Like 23 °F
N
2.0
Wind Variable Wind from SSW
Gusts 7.0 mph

Today
High -- | Low -- °F
--% Chance of Precip.
Yesterday
High -- | Low -- °F
Precip. -- in
Pressure 30.07 in
Visibility 10.0 miles
Clouds Overcast 2600 ft
Windchill 23 °F
Dew Point 17 °F
Humidity 76%
Rainfall 0.00 in
Snow Depth Not available.
7:31 AM 5:17 PM
Waning Crescent, 8% visible
METAR KEVM 060254Z AUTO 24005KT 10SM OVC026 M04/M10 A3007 RMK AO2
Pressure 30.07 in
Visibility 10.0 miles
Clouds Overcast 2600 ft
Windchill 23 °F
Dew Point 17 °F
Humidity 76%
Rainfall 0.00 in
Snow Depth Not available.
7:31 AM 5:17 PM
Waning Crescent, 8% visible
METAR KEVM 060254Z AUTO 24005KT 10SM OVC026 M04/M10 A3007 RMK AO2

10-Day Weather Forecast

Almanac

Astronomy

Feb. 05, 2016 Rise Set
Actual Time
Civil Twilight
Nautical Twilight
Astronomical Twilight
Moon
Length of Visible Light
Length of Day
Tomorrow will be .
, % of the Moon is Illuminated

Today's Extremes

State Highs State Lows

Community

WunderPhotos

Upload Photos

1,890,915 photos uploaded!

WunderBlog® & News

Nearby

Air Quality

  Air Quality AQ Index Pollutant
Not available.

Snow Depth

Station Depth Elevation

Earthquake Activity

City Distance Mag. Time & Date
Minimum magnitude displayed is 2.5.

Coastal Water Temperatures

Place Temperature

Stations

Nearby Weather Stations

Station Location Temp. Windchill Dew Point Humidity Wind Precip. Elev Updated Type
                   

Watches & Warnings

There are currently no watches in effect.